Airfield :
LOGIN :

Register | Disclaimer

   EN    FR    IT 

 










Legend :    VFR   Marginal VFR   IFR   Intensive IFR   Very Intensive IFR
Visi :
Ceiling :
>= 8 km
>= 3000ft
5 to 8 km
1000 to 3000 ft
1500m to 5 km
500 to 1000 ft
800 to 1500m
200 to 500 ft
< 800m
< 200 ft
Symbols :   Thunderstorms  Fog  Heavy snow  Heavy precipitations  Wind > 20 kt
SIGMETs :     Misc.  Thunderstorms  Icing  Turbulence  Mountain Waves  Volcanic Ashes







- Airport Elevation : 154 ft
- IATA code : SZZ


EPSC - Szczecin Goleniow

CURRENT METAR :
  • 251500Z 31012KT 9999 SCT036 22/12 Q1018

EXPIRED METARs :
  • 251430Z 31013KT 9999 FEW034TCU 22/12 Q1018
  • 251400Z 31011KT 270V340 9999 FEW035TCU 22/12 Q1018
  • 251330Z 30011KT 9999 FEW033TCU 22/12 Q1018
  • 251300Z 30009KT 260V340 9999 FEW034 21/12 Q1018
  • 251230Z 31008KT 280V350 9999 FEW032 21/12 Q1018

TAF TAF EPSC
Valid from the 25 at 12:00 until the 26 at 12:00 UTC


251130Z 2512/2612 28010KT 9999 SCT030
PROB40
TEMPO 2512/2518 SCT030TCU
PROB40 2523/2606 4000 BR BKN005
BECMG 2607/2610 01012KT
No reported NOTAMs for that airfield.
1 SIGMET reported for the Warszawa FIR (EPWW) :
 
Embedded thunderstorms
EPWW SIGMET 2 VALID 251345/251605 EPWA
EPWW WARSAW FIR EMBD TS OBS WI N5350 E01820 - N5240 E02050 - N5220 E02150 - N5040 E02220 - N5030 E01920 - N5300 E01630 - N5350 E01820 TOP FL340 MOV SE NC=



MET'MAP, your aeronautical weather chart ! - Copyright ORBIFLY December 2007 - Disclaimer

ORBIFLY MET'MAP TEAM :

Programming & Development : Alexandra Zaïnal
Concept & Development : Baudouin d'Aumeries
Co-Development & Prog : Marc-Olivier Méhu
Technical & hardware support : Manuel Goepfert

Contact : metmap@orbifly.com




SOURCES & CREDITS :

   NOAA